sensor_id;sensor_type;location;lat;lon;timestamp;P1;durP1;ratioP1;P2;durP2;ratioP2
13580;SDS011;6861;46.170;7.222;2023-04-03T00:00:59;1.25;;;1.00;;
13580;SDS011;6861;46.170;7.222;2023-04-03T00:03:29;1.90;;;1.10;;
13580;SDS011;6861;46.170;7.222;2023-04-03T00:05:57;0.98;;;0.90;;
13580;SDS011;6861;46.170;7.222;2023-04-03T00:08:25;2.58;;;1.00;;
13580;SDS011;6861;46.170;7.222;2023-04-03T00:10:53;0.95;;;0.90;;
13580;SDS011;6861;46.170;7.222;2023-04-03T00:13:22;3.03;;;1.25;;
13580;SDS011;6861;46.170;7.222;2023-04-03T00:15:50;1.33;;;0.93;;
13580;SDS011;6861;46.170;7.222;2023-04-03T00:18:19;2.22;;;1.00;;
13580;SDS011;6861;46.170;7.222;2023-04-03T00:20:48;2.60;;;1.00;;
13580;SDS011;6861;46.170;7.222;2023-04-03T00:23:17;1.00;;;0.90;;
13580;SDS011;6861;46.170;7.222;2023-04-03T00:25:45;1.77;;;0.90;;
13580;SDS011;6861;46.170;7.222;2023-04-03T00:28:13;1.42;;;1.00;;
13580;SDS011;6861;46.170;7.222;2023-04-03T00:30:41;1.02;;;0.93;;
13580;SDS011;6861;46.170;7.222;2023-04-03T00:33:10;1.20;;;0.90;;
13580;SDS011;6861;46.170;7.222;2023-04-03T00:35:39;1.60;;;0.95;;
13580;SDS011;6861;46.170;7.222;2023-04-03T00:38:09;1.05;;;0.90;;
13580;SDS011;6861;46.170;7.222;2023-04-03T00:40:38;1.40;;;0.85;;
13580;SDS011;6861;46.170;7.222;2023-04-03T00:43:10;1.60;;;0.90;;
13580;SDS011;6861;46.170;7.222;2023-04-03T00:45:41;0.73;;;0.73;;
13580;SDS011;6861;46.170;7.222;2023-04-03T00:48:11;2.55;;;1.00;;
13580;SDS011;6861;46.170;7.222;2023-04-03T00:50:43;1.10;;;0.90;;
13580;SDS011;6861;46.170;7.222;2023-04-03T00:53:15;1.15;;;0.80;;
13580;SDS011;6861;46.170;7.222;2023-04-03T00:55:46;3.33;;;1.00;;
13580;SDS011;6861;46.170;7.222;2023-04-03T00:58:16;3.15;;;1.50;;
13580;SDS011;6861;46.170;7.222;2023-04-03T01:00:48;2.25;;;1.08;;
13580;SDS011;6861;46.170;7.222;2023-04-03T01:03:22;1.85;;;0.93;;
13580;SDS011;6861;46.170;7.222;2023-04-03T01:05:51;1.38;;;0.90;;
13580;SDS011;6861;46.170;7.222;2023-04-03T01:08:21;1.88;;;0.82;;
13580;SDS011;6861;46.170;7.222;2023-04-03T01:10:49;2.45;;;0.82;;
13580;SDS011;6861;46.170;7.222;2023-04-03T01:13:20;1.55;;;0.90;;
13580;SDS011;6861;46.170;7.222;2023-04-03T01:15:50;1.17;;;0.80;;
13580;SDS011;6861;46.170;7.222;2023-04-03T01:18:19;1.25;;;1.02;;
13580;SDS011;6861;46.170;7.222;2023-04-03T01:24:01;1.52;;;0.85;;
13580;SDS011;6861;46.170;7.222;2023-04-03T01:26:39;1.60;;;0.80;;
13580;SDS011;6861;46.170;7.222;2023-04-03T01:29:08;1.42;;;0.90;;
13580;SDS011;6861;46.170;7.222;2023-04-03T01:31:44;1.73;;;1.00;;
13580;SDS011;6861;46.170;7.222;2023-04-03T01:34:14;1.20;;;0.90;;
13580;SDS011;6861;46.170;7.222;2023-04-03T01:36:43;1.27;;;0.90;;
13580;SDS011;6861;46.170;7.222;2023-04-03T01:39:11;1.55;;;0.80;;
13580;SDS011;6861;46.170;7.222;2023-04-03T01:41:39;1.48;;;1.00;;
13580;SDS011;6861;46.170;7.222;2023-04-03T01:44:07;2.72;;;0.98;;
13580;SDS011;6861;46.170;7.222;2023-04-03T01:46:36;1.30;;;0.90;;
13580;SDS011;6861;46.170;7.222;2023-04-03T01:49:05;1.75;;;0.95;;
13580;SDS011;6861;46.170;7.222;2023-04-03T01:51:33;1.13;;;1.00;;
13580;SDS011;6861;46.170;7.222;2023-04-03T01:54:02;1.17;;;1.00;;
13580;SDS011;6861;46.170;7.222;2023-04-03T01:56:30;1.60;;;0.90;;
13580;SDS011;6861;46.170;7.222;2023-04-03T01:58:58;1.40;;;0.90;;
13580;SDS011;6861;46.170;7.222;2023-04-03T02:01:26;1.20;;;0.95;;
13580;SDS011;6861;46.170;7.222;2023-04-03T02:03:54;1.00;;;0.90;;
13580;SDS011;6861;46.170;7.222;2023-04-03T02:06:24;1.48;;;0.80;;
13580;SDS011;6861;46.170;7.222;2023-04-03T02:08:52;1.45;;;0.90;;
13580;SDS011;6861;46.170;7.222;2023-04-03T02:11:21;1.20;;;0.88;;
13580;SDS011;6861;46.170;7.222;2023-04-03T02:13:49;1.27;;;0.82;;
13580;SDS011;6861;46.170;7.222;2023-04-03T02:16:17;1.52;;;1.00;;
13580;SDS011;6861;46.170;7.222;2023-04-03T02:18:45;2.90;;;0.90;;
13580;SDS011;6861;46.170;7.222;2023-04-03T02:21:13;0.82;;;0.80;;
13580;SDS011;6861;46.170;7.222;2023-04-03T02:23:42;2.83;;;0.88;;
13580;SDS011;6861;46.170;7.222;2023-04-03T02:26:11;2.33;;;0.90;;
13580;SDS011;6861;46.170;7.222;2023-04-03T02:28:41;2.65;;;1.10;;
13580;SDS011;6861;46.170;7.222;2023-04-03T02:31:10;1.08;;;0.80;;
13580;SDS011;6861;46.170;7.222;2023-04-03T02:33:38;1.27;;;0.80;;
13580;SDS011;6861;46.170;7.222;2023-04-03T02:36:06;2.60;;;0.80;;
13580;SDS011;6861;46.170;7.222;2023-04-03T02:38:36;1.30;;;1.00;;
13580;SDS011;6861;46.170;7.222;2023-04-03T02:41:06;1.30;;;0.90;;
13580;SDS011;6861;46.170;7.222;2023-04-03T02:43:35;1.00;;;0.90;;
13580;SDS011;6861;46.170;7.222;2023-04-03T02:46:04;1.00;;;0.80;;
13580;SDS011;6861;46.170;7.222;2023-04-03T02:48:33;2.33;;;1.10;;
13580;SDS011;6861;46.170;7.222;2023-04-03T02:51:01;1.00;;;0.80;;
13580;SDS011;6861;46.170;7.222;2023-04-03T02:53:29;2.47;;;0.90;;
13580;SDS011;6861;46.170;7.222;2023-04-03T02:55:57;1.10;;;0.90;;
13580;SDS011;6861;46.170;7.222;2023-04-03T02:58:27;1.35;;;0.90;;
13580;SDS011;6861;46.170;7.222;2023-04-03T03:00:55;1.42;;;0.82;;
13580;SDS011;6861;46.170;7.222;2023-04-03T03:03:23;2.75;;;0.93;;
13580;SDS011;6861;46.170;7.222;2023-04-03T03:06:00;1.10;;;0.90;;
13580;SDS011;6861;46.170;7.222;2023-04-03T03:08:28;1.38;;;0.90;;
13580;SDS011;6861;46.170;7.222;2023-04-03T03:10:57;1.40;;;0.90;;
13580;SDS011;6861;46.170;7.222;2023-04-03T03:13:25;2.85;;;0.80;;
13580;SDS011;6861;46.170;7.222;2023-04-03T03:15:54;2.50;;;0.85;;
13580;SDS011;6861;46.170;7.222;2023-04-03T03:18:23;1.30;;;0.75;;
13580;SDS011;6861;46.170;7.222;2023-04-03T03:20:51;1.58;;;0.93;;
13580;SDS011;6861;46.170;7.222;2023-04-03T03:23:20;1.10;;;0.80;;
13580;SDS011;6861;46.170;7.222;2023-04-03T03:25:49;0.90;;;0.80;;
13580;SDS011;6861;46.170;7.222;2023-04-03T03:28:23;1.85;;;0.82;;
13580;SDS011;6861;46.170;7.222;2023-04-03T03:30:52;1.00;;;0.90;;
13580;SDS011;6861;46.170;7.222;2023-04-03T03:33:21;1.83;;;0.90;;
13580;SDS011;6861;46.170;7.222;2023-04-03T03:35:49;1.92;;;0.90;;
13580;SDS011;6861;46.170;7.222;2023-04-03T03:38:17;1.83;;;0.82;;
13580;SDS011;6861;46.170;7.222;2023-04-03T03:40:46;2.20;;;1.13;;
13580;SDS011;6861;46.170;7.222;2023-04-03T03:43:15;1.60;;;0.80;;
13580;SDS011;6861;46.170;7.222;2023-04-03T03:45:43;2.30;;;1.23;;
13580;SDS011;6861;46.170;7.222;2023-04-03T03:48:14;2.30;;;1.42;;
13580;SDS011;6861;46.170;7.222;2023-04-03T03:50:42;2.40;;;1.00;;
13580;SDS011;6861;46.170;7.222;2023-04-03T03:53:10;3.15;;;1.10;;
13580;SDS011;6861;46.170;7.222;2023-04-03T03:55:38;2.65;;;1.20;;
13580;SDS011;6861;46.170;7.222;2023-04-03T03:58:06;1.60;;;1.00;;
13580;SDS011;6861;46.170;7.222;2023-04-03T04:00:34;2.28;;;1.00;;
13580;SDS011;6861;46.170;7.222;2023-04-03T04:03:03;1.20;;;0.93;;
13580;SDS011;6861;46.170;7.222;2023-04-03T04:05:32;1.40;;;1.02;;
13580;SDS011;6861;46.170;7.222;2023-04-03T04:08:01;2.30;;;0.82;;
13580;SDS011;6861;46.170;7.222;2023-04-03T04:10:29;1.67;;;1.00;;
13580;SDS011;6861;46.170;7.222;2023-04-03T04:12:57;1.80;;;1.15;;
13580;SDS011;6861;46.170;7.222;2023-04-03T04:15:26;2.15;;;0.93;;
13580;SDS011;6861;46.170;7.222;2023-04-03T04:17:54;1.35;;;1.10;;
13580;SDS011;6861;46.170;7.222;2023-04-03T04:20:23;1.23;;;1.10;;
13580;SDS011;6861;46.170;7.222;2023-04-03T04:22:53;1.83;;;1.08;;
13580;SDS011;6861;46.170;7.222;2023-04-03T04:25:21;2.22;;;1.00;;
13580;SDS011;6861;46.170;7.222;2023-04-03T04:27:49;1.05;;;0.90;;
13580;SDS011;6861;46.170;7.222;2023-04-03T04:30:17;1.80;;;1.23;;
13580;SDS011;6861;46.170;7.222;2023-04-03T04:32:45;1.95;;;1.38;;
13580;SDS011;6861;46.170;7.222;2023-04-03T04:35:13;2.25;;;1.40;;
13580;SDS011;6861;46.170;7.222;2023-04-03T04:37:42;1.52;;;1.30;;
13580;SDS011;6861;46.170;7.222;2023-04-03T04:40:12;1.77;;;1.40;;
13580;SDS011;6861;46.170;7.222;2023-04-03T04:42:41;4.50;;;1.30;;
13580;SDS011;6861;46.170;7.222;2023-04-03T04:45:09;4.60;;;1.40;;
13580;SDS011;6861;46.170;7.222;2023-04-03T04:47:37;3.50;;;1.30;;
13580;SDS011;6861;46.170;7.222;2023-04-03T04:50:06;1.73;;;1.40;;
13580;SDS011;6861;46.170;7.222;2023-04-03T04:52:35;1.70;;;1.23;;
13580;SDS011;6861;46.170;7.222;2023-04-03T04:55:03;3.20;;;1.40;;
13580;SDS011;6861;46.170;7.222;2023-04-03T04:57:33;2.17;;;1.33;;
13580;SDS011;6861;46.170;7.222;2023-04-03T05:00:02;2.50;;;1.60;;
13580;SDS011;6861;46.170;7.222;2023-04-03T05:02:31;5.57;;;1.33;;
13580;SDS011;6861;46.170;7.222;2023-04-03T05:04:59;3.30;;;1.20;;
13580;SDS011;6861;46.170;7.222;2023-04-03T05:07:30;3.17;;;1.23;;
13580;SDS011;6861;46.170;7.222;2023-04-03T05:09:58;1.85;;;1.40;;
13580;SDS011;6861;46.170;7.222;2023-04-03T05:12:26;3.63;;;2.33;;
13580;SDS011;6861;46.170;7.222;2023-04-03T05:14:56;3.72;;;2.20;;
13580;SDS011;6861;46.170;7.222;2023-04-03T05:17:24;3.05;;;1.10;;
13580;SDS011;6861;46.170;7.222;2023-04-03T05:19:52;4.40;;;1.33;;
13580;SDS011;6861;46.170;7.222;2023-04-03T05:22:20;6.90;;;1.30;;
13580;SDS011;6861;46.170;7.222;2023-04-03T05:24:48;3.95;;;1.33;;
13580;SDS011;6861;46.170;7.222;2023-04-03T05:27:16;2.30;;;1.02;;
13580;SDS011;6861;46.170;7.222;2023-04-03T05:29:45;5.88;;;1.35;;
13580;SDS011;6861;46.170;7.222;2023-04-03T05:32:14;1.17;;;1.08;;
13580;SDS011;6861;46.170;7.222;2023-04-03T05:34:42;2.13;;;0.90;;
13580;SDS011;6861;46.170;7.222;2023-04-03T05:37:11;3.00;;;1.10;;
13580;SDS011;6861;46.170;7.222;2023-04-03T05:39:39;2.13;;;1.10;;
13580;SDS011;6861;46.170;7.222;2023-04-03T05:42:07;2.17;;;1.15;;
13580;SDS011;6861;46.170;7.222;2023-04-03T05:44:38;1.80;;;1.20;;
13580;SDS011;6861;46.170;7.222;2023-04-03T05:47:07;7.75;;;1.80;;
13580;SDS011;6861;46.170;7.222;2023-04-03T05:49:36;4.65;;;1.70;;
13580;SDS011;6861;46.170;7.222;2023-04-03T05:52:09;6.90;;;1.55;;
13580;SDS011;6861;46.170;7.222;2023-04-03T05:54:45;3.45;;;1.88;;
13580;SDS011;6861;46.170;7.222;2023-04-03T05:57:14;7.15;;;1.85;;
13580;SDS011;6861;46.170;7.222;2023-04-03T05:59:43;2.53;;;1.60;;
13580;SDS011;6861;46.170;7.222;2023-04-03T06:02:13;4.93;;;1.60;;
13580;SDS011;6861;46.170;7.222;2023-04-03T06:04:44;5.47;;;1.83;;
13580;SDS011;6861;46.170;7.222;2023-04-03T06:07:13;5.75;;;2.65;;
13580;SDS011;6861;46.170;7.222;2023-04-03T06:09:44;7.38;;;2.97;;
13580;SDS011;6861;46.170;7.222;2023-04-03T06:12:13;6.15;;;2.50;;
13580;SDS011;6861;46.170;7.222;2023-04-03T06:14:41;3.90;;;2.30;;
13580;SDS011;6861;46.170;7.222;2023-04-03T06:17:09;2.60;;;2.10;;
13580;SDS011;6861;46.170;7.222;2023-04-03T06:19:38;7.38;;;3.88;;
13580;SDS011;6861;46.170;7.222;2023-04-03T06:22:09;2.63;;;1.75;;
13580;SDS011;6861;46.170;7.222;2023-04-03T06:24:39;5.15;;;3.30;;
13580;SDS011;6861;46.170;7.222;2023-04-03T06:27:08;10.40;;;7.50;;
13580;SDS011;6861;46.170;7.222;2023-04-03T06:29:37;7.22;;;1.95;;
13580;SDS011;6861;46.170;7.222;2023-04-03T06:32:06;4.10;;;1.60;;
13580;SDS011;6861;46.170;7.222;2023-04-03T06:34:34;5.57;;;1.75;;
13580;SDS011;6861;46.170;7.222;2023-04-03T06:37:03;5.80;;;1.83;;
13580;SDS011;6861;46.170;7.222;2023-04-03T06:39:33;2.35;;;1.60;;
13580;SDS011;6861;46.170;7.222;2023-04-03T06:42:02;4.75;;;1.30;;
13580;SDS011;6861;46.170;7.222;2023-04-03T06:44:31;2.72;;;1.42;;
13580;SDS011;6861;46.170;7.222;2023-04-03T06:47:00;4.90;;;1.58;;
13580;SDS011;6861;46.170;7.222;2023-04-03T06:49:29;6.00;;;1.60;;
13580;SDS011;6861;46.170;7.222;2023-04-03T06:51:58;7.35;;;1.73;;
13580;SDS011;6861;46.170;7.222;2023-04-03T06:54:28;2.85;;;1.40;;
13580;SDS011;6861;46.170;7.222;2023-04-03T06:56:57;2.45;;;1.20;;
13580;SDS011;6861;46.170;7.222;2023-04-03T06:59:26;1.88;;;1.45;;
13580;SDS011;6861;46.170;7.222;2023-04-03T07:01:55;4.30;;;2.08;;
13580;SDS011;6861;46.170;7.222;2023-04-03T07:04:25;3.33;;;1.50;;
13580;SDS011;6861;46.170;7.222;2023-04-03T07:06:54;4.80;;;1.48;;
13580;SDS011;6861;46.170;7.222;2023-04-03T07:09:23;7.00;;;1.95;;
13580;SDS011;6861;46.170;7.222;2023-04-03T07:11:51;6.18;;;1.75;;
13580;SDS011;6861;46.170;7.222;2023-04-03T07:14:21;3.05;;;1.63;;
13580;SDS011;6861;46.170;7.222;2023-04-03T07:16:50;3.83;;;1.58;;
13580;SDS011;6861;46.170;7.222;2023-04-03T07:19:18;3.35;;;1.50;;
13580;SDS011;6861;46.170;7.222;2023-04-03T07:21:47;2.03;;;1.60;;
13580;SDS011;6861;46.170;7.222;2023-04-03T07:24:16;3.15;;;1.55;;
13580;SDS011;6861;46.170;7.222;2023-04-03T07:26:44;3.20;;;1.42;;
13580;SDS011;6861;46.170;7.222;2023-04-03T07:29:16;1.75;;;1.30;;
13580;SDS011;6861;46.170;7.222;2023-04-03T07:31:45;3.55;;;1.52;;
13580;SDS011;6861;46.170;7.222;2023-04-03T07:34:13;2.78;;;1.38;;
13580;SDS011;6861;46.170;7.222;2023-04-03T07:36:42;4.28;;;1.55;;
13580;SDS011;6861;46.170;7.222;2023-04-03T07:39:10;3.53;;;1.63;;
13580;SDS011;6861;46.170;7.222;2023-04-03T07:41:38;8.02;;;1.73;;
13580;SDS011;6861;46.170;7.222;2023-04-03T07:44:06;5.57;;;1.70;;
13580;SDS011;6861;46.170;7.222;2023-04-03T07:46:36;3.95;;;1.60;;
13580;SDS011;6861;46.170;7.222;2023-04-03T07:49:05;2.13;;;1.48;;
13580;SDS011;6861;46.170;7.222;2023-04-03T07:51:34;2.00;;;1.33;;
13580;SDS011;6861;46.170;7.222;2023-04-03T07:54:02;1.83;;;1.52;;
13580;SDS011;6861;46.170;7.222;2023-04-03T07:56:31;3.63;;;1.52;;
13580;SDS011;6861;46.170;7.222;2023-04-03T07:58:59;2.05;;;1.52;;
13580;SDS011;6861;46.170;7.222;2023-04-03T08:01:28;1.88;;;1.23;;
13580;SDS011;6861;46.170;7.222;2023-04-03T08:03:58;2.50;;;1.60;;
13580;SDS011;6861;46.170;7.222;2023-04-03T08:06:28;1.38;;;1.25;;
13580;SDS011;6861;46.170;7.222;2023-04-03T08:09:12;1.70;;;1.48;;
13580;SDS011;6861;46.170;7.222;2023-04-03T08:11:40;1.63;;;1.17;;
13580;SDS011;6861;46.170;7.222;2023-04-03T08:14:09;1.13;;;0.88;;
13580;SDS011;6861;46.170;7.222;2023-04-03T08:16:42;3.38;;;1.25;;
13580;SDS011;6861;46.170;7.222;2023-04-03T08:19:11;1.60;;;1.17;;
13580;SDS011;6861;46.170;7.222;2023-04-03T08:21:53;1.10;;;1.00;;
13580;SDS011;6861;46.170;7.222;2023-04-03T08:24:21;1.17;;;0.90;;
13580;SDS011;6861;46.170;7.222;2023-04-03T08:26:50;1.50;;;1.20;;
13580;SDS011;6861;46.170;7.222;2023-04-03T08:29:18;1.20;;;0.90;;
13580;SDS011;6861;46.170;7.222;2023-04-03T08:31:47;4.47;;;1.30;;
13580;SDS011;6861;46.170;7.222;2023-04-03T08:34:16;2.10;;;1.20;;
13580;SDS011;6861;46.170;7.222;2023-04-03T08:36:44;3.63;;;1.50;;
13580;SDS011;6861;46.170;7.222;2023-04-03T08:39:14;1.90;;;1.27;;
13580;SDS011;6861;46.170;7.222;2023-04-03T08:41:43;2.83;;;1.15;;
13580;SDS011;6861;46.170;7.222;2023-04-03T08:44:17;3.38;;;1.15;;
13580;SDS011;6861;46.170;7.222;2023-04-03T08:46:55;1.70;;;1.20;;
13580;SDS011;6861;46.170;7.222;2023-04-03T08:49:31;3.10;;;1.45;;
13580;SDS011;6861;46.170;7.222;2023-04-03T08:52:03;2.05;;;1.40;;
13580;SDS011;6861;46.170;7.222;2023-04-03T08:54:40;3.83;;;1.35;;
13580;SDS011;6861;46.170;7.222;2023-04-03T08:57:20;1.15;;;1.05;;
13580;SDS011;6861;46.170;7.222;2023-04-03T08:59:57;1.42;;;1.30;;
13580;SDS011;6861;46.170;7.222;2023-04-03T09:02:30;2.15;;;1.60;;
13580;SDS011;6861;46.170;7.222;2023-04-03T09:05:01;2.55;;;1.40;;
13580;SDS011;6861;46.170;7.222;2023-04-03T09:07:37;2.90;;;1.50;;
13580;SDS011;6861;46.170;7.222;2023-04-03T09:10:13;1.98;;;1.60;;
13580;SDS011;6861;46.170;7.222;2023-04-03T09:12:44;2.00;;;1.55;;
13580;SDS011;6861;46.170;7.222;2023-04-03T09:15:18;3.38;;;1.20;;
13580;SDS011;6861;46.170;7.222;2023-04-03T09:18:04;1.75;;;1.17;;
13580;SDS011;6861;46.170;7.222;2023-04-03T09:20:40;1.20;;;1.10;;
13580;SDS011;6861;46.170;7.222;2023-04-03T09:23:15;0.70;;;0.70;;
13580;SDS011;6861;46.170;7.222;2023-04-03T09:25:51;1.92;;;1.00;;
13580;SDS011;6861;46.170;7.222;2023-04-03T09:28:24;0.80;;;0.70;;
13580;SDS011;6861;46.170;7.222;2023-04-03T09:30:54;1.85;;;1.00;;
13580;SDS011;6861;46.170;7.222;2023-04-03T09:33:22;1.00;;;0.90;;
13580;SDS011;6861;46.170;7.222;2023-04-03T09:35:51;2.60;;;0.80;;
13580;SDS011;6861;46.170;7.222;2023-04-03T09:38:20;0.70;;;0.70;;
13580;SDS011;6861;46.170;7.222;2023-04-03T09:41:02;1.30;;;0.50;;
13580;SDS011;6861;46.170;7.222;2023-04-03T09:43:34;0.80;;;0.60;;
13580;SDS011;6861;46.170;7.222;2023-04-03T09:46:20;0.63;;;0.50;;
13580;SDS011;6861;46.170;7.222;2023-04-03T09:48:55;1.25;;;0.70;;
13580;SDS011;6861;46.170;7.222;2023-04-03T09:51:34;0.50;;;0.40;;
13580;SDS011;6861;46.170;7.222;2023-04-03T09:54:23;0.65;;;0.50;;
13580;SDS011;6861;46.170;7.222;2023-04-03T09:56:55;0.50;;;0.50;;
13580;SDS011;6861;46.170;7.222;2023-04-03T09:59:26;0.60;;;0.45;;
13580;SDS011;6861;46.170;7.222;2023-04-03T10:01:57;0.50;;;0.50;;
13580;SDS011;6861;46.170;7.222;2023-04-03T10:04:36;0.77;;;0.65;;
13580;SDS011;6861;46.170;7.222;2023-04-03T10:09:57;0.60;;;0.60;;
13580;SDS011;6861;46.170;7.222;2023-04-03T10:12:28;0.60;;;0.60;;
13580;SDS011;6861;46.170;7.222;2023-04-03T10:14:56;0.90;;;0.60;;
13580;SDS011;6861;46.170;7.222;2023-04-03T10:17:31;0.70;;;0.60;;
13580;SDS011;6861;46.170;7.222;2023-04-03T10:20:22;1.42;;;0.60;;
13580;SDS011;6861;46.170;7.222;2023-04-03T10:23:00;0.30;;;0.30;;
13580;SDS011;6861;46.170;7.222;2023-04-03T10:25:40;0.47;;;0.43;;
13580;SDS011;6861;46.170;7.222;2023-04-03T10:28:15;0.40;;;0.30;;
13580;SDS011;6861;46.170;7.222;2023-04-03T10:30:50;0.95;;;0.50;;
13580;SDS011;6861;46.170;7.222;2023-04-03T10:33:29;1.02;;;0.43;;
13580;SDS011;6861;46.170;7.222;2023-04-03T10:36:08;0.70;;;0.50;;
13580;SDS011;6861;46.170;7.222;2023-04-03T10:38:48;0.90;;;0.60;;
13580;SDS011;6861;46.170;7.222;2023-04-03T10:41:23;0.80;;;0.70;;
13580;SDS011;6861;46.170;7.222;2023-04-03T10:44:03;1.13;;;0.80;;
13580;SDS011;6861;46.170;7.222;2023-04-03T10:46:41;1.17;;;0.70;;
13580;SDS011;6861;46.170;7.222;2023-04-03T10:49:19;0.95;;;0.50;;
13580;SDS011;6861;46.170;7.222;2023-04-03T10:51:57;1.45;;;0.60;;
13580;SDS011;6861;46.170;7.222;2023-04-03T10:54:32;0.50;;;0.50;;
13580;SDS011;6861;46.170;7.222;2023-04-03T10:57:06;2.53;;;0.90;;
13580;SDS011;6861;46.170;7.222;2023-04-03T10:59:41;1.15;;;0.50;;
13580;SDS011;6861;46.170;7.222;2023-04-03T11:02:14;1.00;;;0.52;;
13580;SDS011;6861;46.170;7.222;2023-04-03T11:04:50;0.70;;;0.45;;
13580;SDS011;6861;46.170;7.222;2023-04-03T11:07:21;0.70;;;0.50;;
13580;SDS011;6861;46.170;7.222;2023-04-03T11:09:54;2.03;;;0.60;;
13580;SDS011;6861;46.170;7.222;2023-04-03T11:12:27;0.63;;;0.50;;
13580;SDS011;6861;46.170;7.222;2023-04-03T11:15:02;0.77;;;0.70;;
13580;SDS011;6861;46.170;7.222;2023-04-03T11:17:33;0.75;;;0.60;;
13580;SDS011;6861;46.170;7.222;2023-04-03T11:20:08;2.08;;;0.90;;
13580;SDS011;6861;46.170;7.222;2023-04-03T11:22:45;0.70;;;0.70;;
13580;SDS011;6861;46.170;7.222;2023-04-03T11:25:19;0.80;;;0.60;;
13580;SDS011;6861;46.170;7.222;2023-04-03T11:27:51;0.55;;;0.43;;
13580;SDS011;6861;46.170;7.222;2023-04-03T11:30:25;0.70;;;0.60;;
13580;SDS011;6861;46.170;7.222;2023-04-03T11:33:12;1.35;;;0.80;;
13580;SDS011;6861;46.170;7.222;2023-04-03T11:35:49;1.05;;;0.57;;
13580;SDS011;6861;46.170;7.222;2023-04-03T11:38:23;1.75;;;0.70;;
13580;SDS011;6861;46.170;7.222;2023-04-03T11:40:55;0.60;;;0.60;;
13580;SDS011;6861;46.170;7.222;2023-04-03T11:43:26;5.80;;;0.88;;
13580;SDS011;6861;46.170;7.222;2023-04-03T11:45:58;3.25;;;0.70;;
13580;SDS011;6861;46.170;7.222;2023-04-03T11:54:42;0.60;;;0.60;;
13580;SDS011;6861;46.170;7.222;2023-04-03T12:00:48;1.20;;;0.90;;
13580;SDS011;6861;46.170;7.222;2023-04-03T12:03:33;0.90;;;0.88;;
13580;SDS011;6861;46.170;7.222;2023-04-03T12:09:27;2.30;;;0.98;;
13580;SDS011;6861;46.170;7.222;2023-04-03T12:11:59;1.23;;;0.90;;
13580;SDS011;6861;46.170;7.222;2023-04-03T12:14:29;0.93;;;0.80;;
13580;SDS011;6861;46.170;7.222;2023-04-03T12:16:57;1.10;;;0.73;;
13580;SDS011;6861;46.170;7.222;2023-04-03T12:19:32;1.05;;;0.75;;
13580;SDS011;6861;46.170;7.222;2023-04-03T12:22:15;2.05;;;0.80;;
13580;SDS011;6861;46.170;7.222;2023-04-03T12:24:49;1.65;;;0.68;;
13580;SDS011;6861;46.170;7.222;2023-04-03T12:27:21;0.80;;;0.55;;
13580;SDS011;6861;46.170;7.222;2023-04-03T12:29:53;2.40;;;0.70;;
13580;SDS011;6861;46.170;7.222;2023-04-03T12:32:31;0.68;;;0.65;;
13580;SDS011;6861;46.170;7.222;2023-04-03T12:35:16;1.35;;;0.85;;
13580;SDS011;6861;46.170;7.222;2023-04-03T12:40:52;0.70;;;0.60;;
13580;SDS011;6861;46.170;7.222;2023-04-03T12:43:39;1.25;;;0.77;;
13580;SDS011;6861;46.170;7.222;2023-04-03T12:46:17;3.95;;;0.88;;
13580;SDS011;6861;46.170;7.222;2023-04-03T12:48:49;1.73;;;0.73;;
13580;SDS011;6861;46.170;7.222;2023-04-03T12:51:22;1.73;;;0.80;;
13580;SDS011;6861;46.170;7.222;2023-04-03T12:54:00;2.97;;;0.82;;
13580;SDS011;6861;46.170;7.222;2023-04-03T12:56:32;3.28;;;0.70;;
13580;SDS011;6861;46.170;7.222;2023-04-03T12:59:12;2.58;;;0.90;;
13580;SDS011;6861;46.170;7.222;2023-04-03T13:01:43;2.05;;;0.85;;
13580;SDS011;6861;46.170;7.222;2023-04-03T13:04:20;1.20;;;0.80;;
13580;SDS011;6861;46.170;7.222;2023-04-03T13:06:51;2.28;;;1.00;;
13580;SDS011;6861;46.170;7.222;2023-04-03T13:09:21;2.72;;;1.00;;
13580;SDS011;6861;46.170;7.222;2023-04-03T13:11:52;1.30;;;0.90;;
13580;SDS011;6861;46.170;7.222;2023-04-03T13:14:26;1.20;;;0.90;;
13580;SDS011;6861;46.170;7.222;2023-04-03T13:16:56;2.28;;;1.00;;
13580;SDS011;6861;46.170;7.222;2023-04-03T13:19:27;3.65;;;0.80;;
13580;SDS011;6861;46.170;7.222;2023-04-03T13:21:59;0.90;;;0.73;;
13580;SDS011;6861;46.170;7.222;2023-04-03T13:24:33;11.55;;;1.23;;
13580;SDS011;6861;46.170;7.222;2023-04-03T13:27:04;1.35;;;1.00;;
13580;SDS011;6861;46.170;7.222;2023-04-03T13:29:34;1.00;;;0.90;;
13580;SDS011;6861;46.170;7.222;2023-04-03T13:32:04;0.95;;;0.70;;
13580;SDS011;6861;46.170;7.222;2023-04-03T13:34:36;2.42;;;0.90;;
13580;SDS011;6861;46.170;7.222;2023-04-03T13:37:12;1.10;;;0.88;;
13580;SDS011;6861;46.170;7.222;2023-04-03T13:39:56;1.05;;;0.80;;
13580;SDS011;6861;46.170;7.222;2023-04-03T13:42:27;1.00;;;0.90;;
13580;SDS011;6861;46.170;7.222;2023-04-03T13:45:11;2.53;;;1.00;;
13580;SDS011;6861;46.170;7.222;2023-04-03T13:47:47;1.05;;;0.73;;
13580;SDS011;6861;46.170;7.222;2023-04-03T13:50:18;1.42;;;0.98;;
13580;SDS011;6861;46.170;7.222;2023-04-03T13:52:52;1.98;;;0.82;;
13580;SDS011;6861;46.170;7.222;2023-04-03T13:55:23;1.77;;;1.00;;
13580;SDS011;6861;46.170;7.222;2023-04-03T13:57:54;2.30;;;0.90;;
13580;SDS011;6861;46.170;7.222;2023-04-03T14:00:33;1.33;;;1.23;;
13580;SDS011;6861;46.170;7.222;2023-04-03T14:03:11;3.78;;;1.00;;
13580;SDS011;6861;46.170;7.222;2023-04-03T14:05:42;1.00;;;0.85;;
13580;SDS011;6861;46.170;7.222;2023-04-03T14:08:13;2.78;;;1.48;;
13580;SDS011;6861;46.170;7.222;2023-04-03T14:10:42;1.88;;;1.50;;
13580;SDS011;6861;46.170;7.222;2023-04-03T14:13:12;1.10;;;1.00;;
13580;SDS011;6861;46.170;7.222;2023-04-03T14:15:42;1.95;;;1.10;;
13580;SDS011;6861;46.170;7.222;2023-04-03T14:18:15;1.15;;;1.05;;
13580;SDS011;6861;46.170;7.222;2023-04-03T14:20:45;1.40;;;1.30;;
13580;SDS011;6861;46.170;7.222;2023-04-03T14:23:16;2.58;;;1.42;;
13580;SDS011;6861;46.170;7.222;2023-04-03T14:25:45;5.90;;;1.40;;
13580;SDS011;6861;46.170;7.222;2023-04-03T14:28:15;1.50;;;1.40;;
13580;SDS011;6861;46.170;7.222;2023-04-03T14:30:46;11.40;;;2.72;;
13580;SDS011;6861;46.170;7.222;2023-04-03T14:33:16;9.02;;;2.13;;
13580;SDS011;6861;46.170;7.222;2023-04-03T14:35:46;10.65;;;2.67;;
13580;SDS011;6861;46.170;7.222;2023-04-03T14:38:22;7.00;;;1.77;;
13580;SDS011;6861;46.170;7.222;2023-04-03T14:40:52;3.53;;;1.67;;
13580;SDS011;6861;46.170;7.222;2023-04-03T14:43:31;3.03;;;1.40;;
13580;SDS011;6861;46.170;7.222;2023-04-03T14:46:00;2.63;;;1.25;;
13580;SDS011;6861;46.170;7.222;2023-04-03T14:48:29;8.95;;;2.20;;
13580;SDS011;6861;46.170;7.222;2023-04-03T14:50:58;4.57;;;1.38;;
13580;SDS011;6861;46.170;7.222;2023-04-03T14:53:33;3.67;;;1.63;;
13580;SDS011;6861;46.170;7.222;2023-04-03T14:56:08;6.88;;;1.80;;
13580;SDS011;6861;46.170;7.222;2023-04-03T14:58:40;9.65;;;2.28;;
13580;SDS011;6861;46.170;7.222;2023-04-03T15:01:09;20.10;;;2.80;;
13580;SDS011;6861;46.170;7.222;2023-04-03T15:03:38;4.55;;;1.75;;
13580;SDS011;6861;46.170;7.222;2023-04-03T15:06:08;9.70;;;2.13;;
13580;SDS011;6861;46.170;7.222;2023-04-03T15:08:40;20.90;;;2.75;;
13580;SDS011;6861;46.170;7.222;2023-04-03T15:11:09;8.63;;;1.98;;
13580;SDS011;6861;46.170;7.222;2023-04-03T15:13:38;3.88;;;1.70;;
13580;SDS011;6861;46.170;7.222;2023-04-03T15:16:11;3.05;;;1.60;;
13580;SDS011;6861;46.170;7.222;2023-04-03T15:18:43;4.25;;;1.92;;
13580;SDS011;6861;46.170;7.222;2023-04-03T15:21:12;2.38;;;1.63;;
13580;SDS011;6861;46.170;7.222;2023-04-03T15:23:43;1.95;;;1.60;;
13580;SDS011;6861;46.170;7.222;2023-04-03T15:26:12;1.40;;;1.30;;
13580;SDS011;6861;46.170;7.222;2023-04-03T15:28:41;6.00;;;2.00;;
13580;SDS011;6861;46.170;7.222;2023-04-03T15:31:10;9.30;;;2.72;;
13580;SDS011;6861;46.170;7.222;2023-04-03T15:33:38;6.53;;;2.72;;
13580;SDS011;6861;46.170;7.222;2023-04-03T15:36:07;7.65;;;2.30;;
13580;SDS011;6861;46.170;7.222;2023-04-03T15:38:57;18.55;;;4.82;;
13580;SDS011;6861;46.170;7.222;2023-04-03T15:41:26;5.72;;;2.60;;
13580;SDS011;6861;46.170;7.222;2023-04-03T15:43:55;11.32;;;4.45;;
13580;SDS011;6861;46.170;7.222;2023-04-03T15:46:23;8.30;;;2.88;;